N311TY KNTD-KVNY
Flight info
| Callsign | N311TY |
|---|---|
| Flight time | 0h 25m |
| Altitude | 7000 |
| Route | FIM FERN7 |
| Aircraft | C208/L-SDFGR/C |
Departure
| Time | 2026-05-04 00:03 |
|---|---|
| Airport | Point Mugu Naval Air Station (Naval Base Ventura Co) (KNTD) |
Arrival
| Time | 2026-05-04 00:29 |
|---|---|
| Airport | Van Nuys Airport (KVNY) |
| Time | Latitude | Longitude | Altitude | Speed | Heading |
|---|---|---|---|---|---|
| 2026-05-03 23:36 | 34.11588 | -119.11015 | 19 ft | 0 kts | 106° |
| 2026-05-03 23:52 | 34.11577 | -119.11003 | 19 ft | 5 kts | 179° |
| 2026-05-03 23:53 | 34.11585 | -119.11063 | 19 ft | 11 kts | 310° |
| 2026-05-03 23:53 | 34.11604 | -119.11064 | 19 ft | 0 kts | 21° |
| 2026-05-03 23:54 | 34.11607 | -119.11063 | 19 ft | 6 kts | 17° |
| 2026-05-03 23:54 | 34.11653 | -119.11099 | 19 ft | 11 kts | 284° |
| 2026-05-03 23:54 | 34.11681 | -119.11223 | 19 ft | 17 kts | 286° |
| 2026-05-03 23:55 | 34.11717 | -119.11382 | 19 ft | 22 kts | 285° |
| 2026-05-03 23:55 | 34.11762 | -119.11581 | 18 ft | 25 kts | 285° |
| 2026-05-03 23:55 | 34.11810 | -119.11736 | 18 ft | 13 kts | 339° |
| 2026-05-03 23:55 | 34.11859 | -119.11726 | 18 ft | 0 kts | 15° |
| 2026-05-03 23:57 | 34.11890 | -119.11716 | 17 ft | 18 kts | 12° |
| 2026-05-03 23:57 | 34.12028 | -119.11671 | 17 ft | 21 kts | 14° |
| 2026-05-03 23:57 | 34.12189 | -119.11620 | 18 ft | 27 kts | 14° |
| 2026-05-03 23:57 | 34.12297 | -119.11547 | 19 ft | 27 kts | 44° |
| 2026-05-03 23:58 | 34.12429 | -119.11396 | 20 ft | 26 kts | 45° |
| 2026-05-03 23:58 | 34.12560 | -119.11244 | 20 ft | 28 kts | 44° |
| 2026-05-03 23:58 | 34.12702 | -119.11080 | 20 ft | 30 kts | 44° |
| 2026-05-03 23:58 | 34.12846 | -119.10915 | 20 ft | 27 kts | 43° |
| 2026-05-03 23:59 | 34.12955 | -119.10835 | 20 ft | 12 kts | 329° |
| 2026-05-03 23:59 | 34.12975 | -119.10857 | 20 ft | 0 kts | 314° |
| 2026-05-04 00:02 | 34.13022 | -119.10921 | 20 ft | 14 kts | 297° |
| 2026-05-04 00:02 | 34.12916 | -119.11067 | 20 ft | 56 kts | 224° |
| 2026-05-04 00:03 | 34.12524 | -119.11525 | 112 ft | 90 kts | 222° |
| 2026-05-04 00:03 | 34.12040 | -119.12061 | 281 ft | 106 kts | 221° |
| 2026-05-04 00:03 | 34.11465 | -119.12706 | 511 ft | 110 kts | 222° |
| 2026-05-04 00:03 | 34.10949 | -119.13277 | 1092 ft | 94 kts | 223° |
| 2026-05-04 00:04 | 34.10435 | -119.13780 | 1474 ft | 99 kts | 224° |
| 2026-05-04 00:04 | 34.09918 | -119.14276 | 1883 ft | 91 kts | 224° |
| 2026-05-04 00:04 | 34.09404 | -119.14766 | 2181 ft | 96 kts | 224° |
| 2026-05-04 00:04 | 34.08887 | -119.15257 | 2549 ft | 95 kts | 223° |
| 2026-05-04 00:05 | 34.08358 | -119.15767 | 2862 ft | 97 kts | 223° |
| 2026-05-04 00:05 | 34.07839 | -119.16283 | 3196 ft | 98 kts | 223° |
| 2026-05-04 00:05 | 34.07306 | -119.16797 | 3500 ft | 99 kts | 224° |
| 2026-05-04 00:05 | 34.06773 | -119.17325 | 3803 ft | 100 kts | 224° |
| 2026-05-04 00:06 | 34.06233 | -119.17865 | 4087 ft | 102 kts | 224° |
| 2026-05-04 00:06 | 34.05828 | -119.18525 | 4383 ft | 100 kts | 268° |
| 2026-05-04 00:06 | 34.06235 | -119.19135 | 4679 ft | 106 kts | 348° |
| 2026-05-04 00:06 | 34.06979 | -119.19131 | 4981 ft | 107 kts | 355° |
| 2026-05-04 00:07 | 34.07713 | -119.18967 | 5234 ft | 115 kts | 37° |
| 2026-05-04 00:07 | 34.08246 | -119.18251 | 5516 ft | 115 kts | 40° |
| 2026-05-04 00:07 | 34.08834 | -119.17582 | 5776 ft | 117 kts | 39° |
| 2026-05-04 00:07 | 34.09427 | -119.16904 | 6054 ft | 118 kts | 38° |
| 2026-05-04 00:08 | 34.10037 | -119.16227 | 6333 ft | 119 kts | 38° |
| 2026-05-04 00:08 | 34.10654 | -119.15547 | 6590 ft | 121 kts | 37° |
| 2026-05-04 00:08 | 34.11281 | -119.14859 | 6832 ft | 123 kts | 37° |
| 2026-05-04 00:08 | 34.11932 | -119.14150 | 7003 ft | 135 kts | 39° |
| 2026-05-04 00:09 | 34.12673 | -119.13330 | 7021 ft | 154 kts | 39° |
| 2026-05-04 00:09 | 34.13496 | -119.12421 | 7017 ft | 166 kts | 39° |
| 2026-05-04 00:09 | 34.14367 | -119.11470 | 7006 ft | 172 kts | 39° |
| 2026-05-04 00:09 | 34.15265 | -119.10490 | 7015 ft | 176 kts | 40° |
| 2026-05-04 00:10 | 34.16175 | -119.09495 | 7009 ft | 177 kts | 40° |
| 2026-05-04 00:10 | 34.17094 | -119.08493 | 6982 ft | 179 kts | 40° |
| 2026-05-04 00:10 | 34.18021 | -119.07478 | 6977 ft | 180 kts | 40° |
| 2026-05-04 00:10 | 34.18951 | -119.06458 | 6981 ft | 181 kts | 40° |
| 2026-05-04 00:11 | 34.19886 | -119.05436 | 6972 ft | 181 kts | 40° |
| 2026-05-04 00:11 | 34.20820 | -119.04416 | 6972 ft | 181 kts | 40° |
| 2026-05-04 00:11 | 34.21753 | -119.03394 | 6973 ft | 181 kts | 40° |
| 2026-05-04 00:11 | 34.22685 | -119.02373 | 6984 ft | 181 kts | 40° |
| 2026-05-04 00:12 | 34.23618 | -119.01350 | 6983 ft | 181 kts | 40° |
| 2026-05-04 00:12 | 34.24554 | -119.00325 | 6980 ft | 182 kts | 41° |
| 2026-05-04 00:12 | 34.25491 | -118.99298 | 6999 ft | 181 kts | 41° |
| 2026-05-04 00:12 | 34.26417 | -118.98283 | 7011 ft | 180 kts | 41° |
| 2026-05-04 00:13 | 34.27344 | -118.97266 | 7013 ft | 180 kts | 41° |
| 2026-05-04 00:13 | 34.28275 | -118.96244 | 7015 ft | 181 kts | 41° |
| 2026-05-04 00:13 | 34.29206 | -118.95223 | 7014 ft | 181 kts | 41° |
| 2026-05-04 00:13 | 34.30136 | -118.94202 | 7016 ft | 181 kts | 41° |
| 2026-05-04 00:14 | 34.31069 | -118.93176 | 7018 ft | 181 kts | 42° |
| 2026-05-04 00:14 | 34.32005 | -118.92148 | 7017 ft | 182 kts | 42° |
| 2026-05-04 00:14 | 34.32943 | -118.91117 | 7022 ft | 182 kts | 42° |
| 2026-05-04 00:14 | 34.33883 | -118.90083 | 7020 ft | 183 kts | 42° |
| 2026-05-04 00:15 | 34.34823 | -118.89052 | 7023 ft | 183 kts | 42° |
| 2026-05-04 00:15 | 34.35683 | -118.87938 | 7020 ft | 182 kts | 61° |
| 2026-05-04 00:15 | 34.36012 | -118.86489 | 7014 ft | 176 kts | 82° |
| 2026-05-04 00:15 | 34.36223 | -118.85039 | 7031 ft | 176 kts | 82° |
| 2026-05-04 00:16 | 34.36443 | -118.83572 | 7039 ft | 179 kts | 82° |
| 2026-05-04 00:16 | 34.36668 | -118.82077 | 7033 ft | 181 kts | 82° |
| 2026-05-04 00:16 | 34.36894 | -118.80565 | 7034 ft | 184 kts | 82° |
| 2026-05-04 00:16 | 34.37128 | -118.79044 | 7034 ft | 184 kts | 82° |
| 2026-05-04 00:17 | 34.37365 | -118.77525 | 7030 ft | 184 kts | 82° |
| 2026-05-04 00:17 | 34.37600 | -118.76008 | 7025 ft | 183 kts | 82° |
| 2026-05-04 00:17 | 34.37832 | -118.74505 | 7024 ft | 181 kts | 82° |
| 2026-05-04 00:17 | 34.38083 | -118.73024 | 7011 ft | 179 kts | 76° |
| 2026-05-04 00:18 | 34.38639 | -118.71659 | 7001 ft | 182 kts | 62° |
| 2026-05-04 00:18 | 34.39233 | -118.70393 | 6800 ft | 169 kts | 62° |
| 2026-05-04 00:18 | 34.39823 | -118.69137 | 6535 ft | 170 kts | 62° |
| 2026-05-04 00:18 | 34.40418 | -118.67887 | 6291 ft | 168 kts | 62° |
| 2026-05-04 00:19 | 34.41000 | -118.66662 | 6045 ft | 168 kts | 62° |
| 2026-05-04 00:19 | 34.41574 | -118.65457 | 5802 ft | 167 kts | 62° |
| 2026-05-04 00:19 | 34.42167 | -118.64227 | 5523 ft | 167 kts | 62° |
| 2026-05-04 00:19 | 34.42756 | -118.63030 | 5277 ft | 165 kts | 62° |
| 2026-05-04 00:20 | 34.43345 | -118.61837 | 5029 ft | 164 kts | 62° |
| 2026-05-04 00:20 | 34.43866 | -118.60688 | 5006 ft | 147 kts | 76° |
| 2026-05-04 00:20 | 34.44100 | -118.59536 | 5005 ft | 138 kts | 82° |
| 2026-05-04 00:20 | 34.44342 | -118.58350 | 5026 ft | 152 kts | 82° |
| 2026-05-04 00:21 | 34.44589 | -118.57055 | 5030 ft | 163 kts | 82° |
| 2026-05-04 00:21 | 34.44837 | -118.55687 | 5028 ft | 168 kts | 80° |
| 2026-05-04 00:21 | 34.45087 | -118.54303 | 5024 ft | 168 kts | 82° |
| 2026-05-04 00:21 | 34.45057 | -118.52958 | 5018 ft | 156 kts | 122° |
| 2026-05-04 00:22 | 34.44376 | -118.52022 | 5029 ft | 146 kts | 148° |
| 2026-05-04 00:22 | 34.43486 | -118.51478 | 5026 ft | 143 kts | 162° |
| 2026-05-04 00:22 | 34.42536 | -118.51176 | 5033 ft | 141 kts | 177° |
| 2026-05-04 00:22 | 34.41559 | -118.51031 | 5029 ft | 141 kts | 177° |
| 2026-05-04 00:23 | 34.40590 | -118.50920 | 5029 ft | 139 kts | 178° |
| 2026-05-04 00:23 | 34.39616 | -118.50811 | 4974 ft | 144 kts | 178° |
| 2026-05-04 00:23 | 34.38578 | -118.50715 | 4760 ft | 154 kts | 179° |
| 2026-05-04 00:23 | 34.37507 | -118.50616 | 4519 ft | 155 kts | 178° |
| 2026-05-04 00:24 | 34.36421 | -118.50505 | 4260 ft | 156 kts | 178° |
| 2026-05-04 00:24 | 34.35361 | -118.50409 | 4027 ft | 151 kts | 179° |
| 2026-05-04 00:24 | 34.34322 | -118.50311 | 3778 ft | 147 kts | 179° |
| 2026-05-04 00:24 | 34.33307 | -118.50208 | 3555 ft | 145 kts | 179° |
| 2026-05-04 00:25 | 34.32309 | -118.50118 | 3337 ft | 144 kts | 179° |
| 2026-05-04 00:25 | 34.31316 | -118.50019 | 3116 ft | 144 kts | 179° |
| 2026-05-04 00:25 | 34.30327 | -118.49931 | 2891 ft | 142 kts | 179° |
| 2026-05-04 00:25 | 34.29331 | -118.49831 | 2667 ft | 144 kts | 179° |
| 2026-05-04 00:26 | 34.28330 | -118.49743 | 2430 ft | 145 kts | 178° |
| 2026-05-04 00:26 | 34.27347 | -118.49643 | 2171 ft | 136 kts | 177° |
| 2026-05-04 00:26 | 34.26418 | -118.49562 | 1956 ft | 131 kts | 178° |
| 2026-05-04 00:26 | 34.25562 | -118.49469 | 1827 ft | 114 kts | 178° |
| 2026-05-04 00:27 | 34.24823 | -118.49392 | 1686 ft | 104 kts | 178° |
| 2026-05-04 00:27 | 34.24147 | -118.49340 | 1520 ft | 88 kts | 172° |
| 2026-05-04 00:27 | 34.23562 | -118.49292 | 1319 ft | 81 kts | 172° |
| 2026-05-04 00:27 | 34.22991 | -118.49247 | 1140 ft | 82 kts | 173° |
| 2026-05-04 00:28 | 34.22422 | -118.49183 | 1015 ft | 81 kts | 173° |
| 2026-05-04 00:28 | 34.21876 | -118.49132 | 889 ft | 77 kts | 168° |
| 2026-05-04 00:28 | 34.21363 | -118.49084 | 801 ft | 70 kts | 168° |
| 2026-05-04 00:28 | 34.20933 | -118.49034 | 790 ft | 52 kts | 172° |
| 2026-05-04 00:29 | 34.20689 | -118.49016 | 784 ft | 15 kts | 190° |
| 2026-05-04 00:29 | 34.20660 | -118.49096 | 782 ft | 5 kts | 266° |
| 2026-05-04 00:29 | 34.20658 | -118.49148 | 781 ft | 16 kts | 267° |
| 2026-05-04 00:29 | 34.20657 | -118.49228 | 781 ft | 0 kts | 273° |
| 2026-05-04 00:30 | 34.20642 | -118.49319 | 781 ft | 16 kts | 223° |
| 2026-05-04 00:30 | 34.20590 | -118.49361 | 779 ft | 0 kts | 277° |